createdAt,value
2018-06-10T00:00:26.373Z,100377.03
2018-06-10T00:01:29.755Z,100375.05
2018-06-10T00:02:33.141Z,100370.64
2018-06-10T00:03:36.521Z,100370.08
2018-06-10T00:04:39.912Z,100373.66
2018-06-10T00:05:43.302Z,100365.32
2018-06-10T00:06:46.682Z,100362.54
2018-06-10T00:07:50.090Z,100358.58
2018-06-10T00:08:53.469Z,100353.61
2018-06-10T00:09:57.106Z,100346.66
2018-06-10T00:11:00.486Z,100349.66
2018-06-10T00:12:03.906Z,100339.71
2018-06-10T00:13:07.302Z,100341.90
2018-06-10T00:14:10.689Z,100341.90
2018-06-10T00:15:14.090Z,100336.93
2018-06-10T00:16:17.485Z,100333.77
2018-06-10T00:17:20.873Z,100333.56
2018-06-10T00:18:24.313Z,100329.98
2018-06-10T00:19:27.693Z,100325.43
2018-06-10T00:20:31.089Z,100325.22
2018-06-10T00:21:34.462Z,100321.64
2018-06-10T00:22:37.852Z,100315.48
2018-06-10T00:23:41.239Z,100314.90
2018-06-10T00:24:44.631Z,100311.31
2018-06-10T00:25:48.017Z,100309.34
2018-06-10T00:26:51.390Z,100301.80
2018-06-10T00:27:54.769Z,100298.01
2018-06-10T00:29:03.474Z,100296.03
2018-06-10T00:30:06.880Z,100295.44
2018-06-10T00:31:10.270Z,100289.28
2018-06-10T00:32:13.649Z,100292.66
2018-06-10T00:33:17.029Z,100298.01
2018-06-10T00:34:20.492Z,100305.97
2018-06-10T00:35:23.874Z,100305.17
2018-06-10T00:36:27.455Z,100301.80
2018-06-10T00:37:30.849Z,100303.78
2018-06-10T00:38:34.238Z,100303.19
2018-06-10T00:39:37.651Z,100301.59
2018-06-10T00:40:41.042Z,100298.80
2018-06-10T00:41:44.438Z,100303.78
2018-06-10T00:42:47.887Z,100304.16
2018-06-10T00:43:51.257Z,100305.75
2018-06-10T00:44:54.645Z,100300.78
2018-06-10T00:45:58.030Z,100308.54
2018-06-10T00:47:01.426Z,100308.33
2018-06-10T00:48:04.834Z,100307.95
2018-06-10T00:49:08.222Z,100303.56
2018-06-10T00:50:11.675Z,100311.70
2018-06-10T00:51:15.062Z,100305.55
2018-06-10T00:52:18.449Z,100308.33
2018-06-10T00:53:21.886Z,100303.91
2018-06-10T00:54:25.273Z,100308.92
2018-06-10T00:55:28.677Z,100305.30
2018-06-10T00:56:43.415Z,100309.48
2018-06-10T00:57:46.797Z,100307.28
2018-06-10T00:58:50.182Z,100301.14
2018-06-10T00:59:53.570Z,100310.31
2018-06-10T01:00:56.984Z,100301.52
2018-06-10T01:02:00.367Z,100305.09
2018-06-10T01:03:03.798Z,100302.31
2018-06-10T01:04:07.178Z,100307.66
2018-06-10T01:05:11.434Z,100303.49
2018-06-10T01:06:14.881Z,100302.10
2018-06-10T01:07:18.261Z,100299.91
2018-06-10T01:08:21.634Z,100297.72
2018-06-10T01:09:25.030Z,100287.99
2018-06-10T01:10:28.449Z,100287.41
2018-06-10T01:11:31.826Z,100281.05
2018-06-10T01:12:35.202Z,100286.60
2018-06-10T01:13:38.597Z,100286.39
2018-06-10T01:14:41.978Z,100283.02
2018-06-10T01:15:45.386Z,100282.22
2018-06-10T01:16:48.770Z,100283.61
2018-06-10T01:17:52.178Z,100285.21
2018-06-10T01:18:55.550Z,100282.22
2018-06-10T01:19:58.937Z,100283.83
2018-06-10T01:21:02.386Z,100285.00
2018-06-10T01:22:05.766Z,100284.41
2018-06-10T01:23:09.149Z,100280.63
2018-06-10T01:24:12.526Z,100286.39
2018-06-10T01:25:15.917Z,100282.02
2018-06-10T01:26:24.769Z,100290.56
2018-06-10T01:27:28.210Z,100291.74
2018-06-10T01:28:31.593Z,100290.35
2018-06-10T01:29:34.994Z,100297.30
2018-06-10T01:30:40.138Z,100295.91
2018-06-10T01:31:44.439Z,100296.29
2018-06-10T01:32:47.822Z,100292.92
2018-06-10T01:33:51.204Z,100286.56
2018-06-10T01:34:54.577Z,100287.36
2018-06-10T01:35:57.958Z,100284.58
2018-06-10T01:37:01.379Z,100285.97
2018-06-10T01:38:04.762Z,100284.80
2018-06-10T01:39:08.227Z,100278.81
2018-06-10T01:40:11.640Z,100275.23
2018-06-10T01:41:15.046Z,100275.82
2018-06-10T01:42:18.439Z,100276.62
2018-06-10T01:43:21.853Z,100277.20
2018-06-10T01:44:25.261Z,100276.03
2018-06-10T01:45:28.676Z,100271.27
2018-06-10T01:46:32.062Z,100266.89
2018-06-10T01:47:35.514Z,100268.28
2018-06-10T01:48:38.894Z,100260.53
2018-06-10T01:49:42.304Z,100266.30
2018-06-10T01:50:45.685Z,100260.74
2018-06-10T01:51:49.083Z,100252.78
2018-06-10T01:52:52.492Z,100252.19
2018-06-10T01:53:55.870Z,100251.02
2018-06-10T01:54:59.253Z,100252.99
2018-06-10T01:56:02.661Z,100248.83
2018-06-10T01:57:06.037Z,100246.63
2018-06-10T01:58:09.493Z,100248.83
2018-06-10T01:59:12.891Z,100249.41
2018-06-10T02:00:16.280Z,100254.38
2018-06-10T02:01:19.655Z,100253.58
2018-06-10T02:02:23.062Z,100252.78
2018-06-10T02:03:26.503Z,100250.00
2018-06-10T02:04:29.902Z,100246.63
2018-06-10T02:05:33.335Z,100248.02
2018-06-10T02:06:36.714Z,100238.88
2018-06-10T02:07:40.120Z,100235.72
2018-06-10T02:08:43.947Z,100236.52
2018-06-10T02:09:47.348Z,100235.34
2018-06-10T02:10:50.743Z,100244.27
2018-06-10T02:11:54.164Z,100243.89
2018-06-10T02:12:57.579Z,100242.30
2018-06-10T02:14:01.001Z,100242.30
2018-06-10T02:15:04.418Z,100239.52
2018-06-10T02:16:07.852Z,100240.91
2018-06-10T02:17:11.244Z,100238.71
2018-06-10T02:18:14.630Z,100232.94
2018-06-10T02:19:18.022Z,100235.13
2018-06-10T02:20:21.431Z,100231.34
2018-06-10T02:21:24.871Z,100235.72
2018-06-10T02:22:28.241Z,100228.94
2018-06-10T02:23:31.651Z,100231.72
2018-06-10T02:24:35.078Z,100229.53
2018-06-10T02:25:38.486Z,100227.94
2018-06-10T02:26:41.885Z,100220.77
2018-06-10T02:27:45.268Z,100227.73
2018-06-10T02:28:48.682Z,100231.09
2018-06-10T02:29:52.119Z,100233.87
2018-06-10T02:30:55.522Z,100225.91
2018-06-10T02:31:58.925Z,100230.88
2018-06-10T02:33:02.309Z,100226.50
2018-06-10T02:34:05.733Z,100233.45
2018-06-10T02:35:09.154Z,100237.97
2018-06-10T02:36:12.548Z,100240.96
2018-06-10T02:37:15.947Z,100232.41
2018-06-10T02:38:19.387Z,100236.58
2018-06-10T02:39:22.771Z,100233.00
2018-06-10T02:40:26.203Z,100226.05
2018-06-10T02:41:29.611Z,100224.45
2018-06-10T02:42:32.982Z,100220.28
2018-06-10T02:43:36.364Z,100221.09
2018-06-10T02:44:39.766Z,100214.73
2018-06-10T02:45:43.172Z,100214.73
2018-06-10T02:46:46.570Z,100210.94
2018-06-10T02:47:49.959Z,100212.33
2018-06-10T02:48:53.365Z,100210.34
2018-06-10T02:49:56.761Z,100212.92
2018-06-10T02:51:00.187Z,100212.12
2018-06-10T02:52:03.604Z,100212.12
2018-06-10T02:53:06.993Z,100212.12
2018-06-10T02:54:10.385Z,100217.09
2018-06-10T02:55:13.792Z,100209.13
2018-06-10T02:56:17.217Z,100212.50
2018-06-10T02:57:20.626Z,100211.91
2018-06-10T02:58:24.025Z,100215.86
2018-06-10T02:59:27.465Z,100214.69
2018-06-10T03:00:30.889Z,100212.88
2018-06-10T03:01:34.340Z,100211.70
2018-06-10T03:02:37.759Z,100207.91
2018-06-10T03:03:41.165Z,100209.51
2018-06-10T03:04:44.573Z,100214.48
2018-06-10T03:05:47.979Z,100212.67
2018-06-10T03:06:51.391Z,100214.27
2018-06-10T03:07:54.841Z,100219.61
2018-06-10T03:08:58.193Z,100211.06
2018-06-10T03:10:01.585Z,100216.25
2018-06-10T03:11:05.071Z,100207.70
2018-06-10T03:12:08.518Z,100216.25
2018-06-10T03:13:11.935Z,100218.02
2018-06-10T03:14:15.328Z,100217.22
2018-06-10T03:15:18.720Z,100213.05
2018-06-10T03:16:22.142Z,100220.58
2018-06-10T03:17:25.574Z,100219.41
2018-06-10T03:18:28.985Z,100224.16
2018-06-10T03:19:32.389Z,100223.36
2018-06-10T03:20:35.846Z,100221.97
2018-06-10T03:21:39.237Z,100215.99
2018-06-10T03:22:42.613Z,100223.16
2018-06-10T03:23:45.989Z,100223.74
2018-06-10T03:24:49.366Z,100219.58
2018-06-10T03:25:52.772Z,100224.54
2018-06-10T03:26:56.191Z,100219.58
2018-06-10T03:27:59.602Z,100220.75
2018-06-10T03:29:03.035Z,100214.61
2018-06-10T03:30:06.472Z,100214.81
2018-06-10T03:31:09.880Z,100217.17
2018-06-10T03:32:13.287Z,100212.17
2018-06-10T03:33:16.680Z,100209.64
2018-06-10T03:34:20.054Z,100206.06
2018-06-10T03:35:23.473Z,100211.61
2018-06-10T03:36:26.848Z,100206.62
2018-06-10T03:37:30.231Z,100211.38
2018-06-10T03:38:33.611Z,100209.98
2018-06-10T03:39:36.998Z,100205.81
2018-06-10T03:40:40.413Z,100207.80
2018-06-10T03:41:43.785Z,100212.17
2018-06-10T03:42:47.172Z,100212.41
2018-06-10T03:43:50.560Z,100217.17
2018-06-10T03:44:53.991Z,100220.37
2018-06-10T03:45:57.391Z,100217.80
2018-06-10T03:47:00.784Z,100219.41
2018-06-10T03:48:04.173Z,100218.02
2018-06-10T03:49:07.561Z,100223.78
2018-06-10T03:50:11.067Z,100228.96
2018-06-10T03:51:14.466Z,100228.58
2018-06-10T03:52:17.879Z,100223.02
2018-06-10T03:53:21.262Z,100224.63
2018-06-10T03:54:24.660Z,100224.24
2018-06-10T03:55:28.093Z,100219.27
2018-06-10T03:56:31.526Z,100223.45
2018-06-10T03:57:34.926Z,100224.45
2018-06-10T03:58:38.324Z,100225.25
2018-06-10T03:59:41.729Z,100228.25
2018-06-10T04:00:45.160Z,100221.88
2018-06-10T04:01:48.573Z,100223.48
2018-06-10T04:02:51.964Z,100222.69
2018-06-10T04:03:55.388Z,100222.89
2018-06-10T04:04:58.801Z,100227.30
2018-06-10T04:06:02.199Z,100220.11
2018-06-10T04:07:05.574Z,100218.17
2018-06-10T04:08:08.971Z,100222.55
2018-06-10T04:09:12.379Z,100219.56
2018-06-10T04:10:15.791Z,100224.52
2018-06-10T04:11:19.174Z,100220.36
2018-06-10T04:12:22.568Z,100218.97
2018-06-10T04:13:25.976Z,100221.75
2018-06-10T04:14:29.426Z,100219.17
2018-06-10T04:15:32.828Z,100219.98
2018-06-10T04:16:36.220Z,100219.17
2018-06-10T04:17:39.604Z,100217.79
2018-06-10T04:18:43.010Z,100217.41
2018-06-10T04:19:46.437Z,100219.59
2018-06-10T04:20:49.836Z,100225.16
2018-06-10T04:21:53.263Z,100232.91
2018-06-10T04:22:56.656Z,100229.91
2018-06-10T04:24:00.085Z,100234.88
2018-06-10T04:25:03.546Z,100237.45
2018-06-10T04:26:06.934Z,100239.64
2018-06-10T04:27:10.320Z,100237.45
2018-06-10T04:28:13.723Z,100237.45
2018-06-10T04:29:17.126Z,100236.27
2018-06-10T04:30:20.513Z,100237.08
2018-06-10T04:31:23.908Z,100239.27
2018-06-10T04:32:27.296Z,100238.67
2018-06-10T04:33:30.686Z,100242.25
2018-06-10T04:34:34.078Z,100239.47
2018-06-10T04:35:37.494Z,100249.41
2018-06-10T04:36:40.898Z,100243.85
2018-06-10T04:37:44.315Z,100245.45
2018-06-10T04:38:47.735Z,100245.24
2018-06-10T04:39:51.157Z,100248.83
2018-06-10T04:40:54.575Z,100250.42
2018-06-10T04:41:57.992Z,100246.63
2018-06-10T04:43:01.441Z,100248.02
2018-06-10T04:44:04.857Z,100248.23
2018-06-10T04:45:08.240Z,100252.41
2018-06-10T04:46:11.621Z,100251.22
2018-06-10T04:47:15.078Z,100248.44
2018-06-10T04:48:18.447Z,100245.45
2018-06-10T04:49:21.860Z,100249.03
2018-06-10T04:50:25.252Z,100248.44
2018-06-10T04:51:28.664Z,100251.22
2018-06-10T04:52:32.057Z,100262.34
2018-06-10T04:53:35.457Z,100254.00
2018-06-10T04:54:38.859Z,100257.58
2018-06-10T04:55:42.262Z,100261.75
2018-06-10T04:56:45.648Z,100263.94
2018-06-10T04:57:49.057Z,100262.94
2018-06-10T04:58:52.453Z,100266.72
2018-06-10T04:59:55.860Z,100263.94
2018-06-10T05:00:59.256Z,100264.74
2018-06-10T05:02:02.913Z,100264.53
2018-06-10T05:03:06.306Z,100269.50
2018-06-10T05:04:09.777Z,100260.95
2018-06-10T05:05:13.178Z,100267.90
2018-06-10T05:06:16.584Z,100268.11
2018-06-10T05:07:19.958Z,100268.11
2018-06-10T05:08:23.373Z,100268.70
2018-06-10T05:09:26.761Z,100270.09
2018-06-10T05:10:30.146Z,100266.52
2018-06-10T05:11:33.529Z,100271.48
2018-06-10T05:12:36.951Z,100277.63
2018-06-10T05:13:40.375Z,100275.66
2018-06-10T05:14:43.800Z,100273.46
2018-06-10T05:15:47.251Z,100274.85
2018-06-10T05:16:50.646Z,100282.02
2018-06-10T05:17:54.199Z,100278.85
2018-06-10T05:18:57.769Z,100276.07
2018-06-10T05:20:01.938Z,100277.08
2018-06-10T05:21:05.299Z,100273.50
2018-06-10T05:22:08.701Z,100272.91
2018-06-10T05:23:12.102Z,100268.53
2018-06-10T05:24:15.487Z,100270.72
2018-06-10T05:25:18.897Z,100270.93
2018-06-10T05:26:22.278Z,100271.73
2018-06-10T05:27:25.674Z,100273.12
2018-06-10T05:28:29.098Z,100268.16
2018-06-10T05:29:32.534Z,100271.52
2018-06-10T05:30:35.975Z,100268.36
2018-06-10T05:31:39.421Z,100272.32
2018-06-10T05:32:45.518Z,100279.86
2018-06-10T05:33:49.464Z,100270.13
2018-06-10T05:34:52.885Z,100275.91
2018-06-10T05:35:56.282Z,100277.08
2018-06-10T05:36:59.736Z,100280.66
2018-06-10T05:38:03.873Z,100281.25
2018-06-10T05:39:09.284Z,100280.66
2018-06-10T05:40:13.128Z,100280.66
2018-06-10T05:41:16.625Z,100278.47
2018-06-10T05:42:20.049Z,100275.69
2018-06-10T05:43:23.701Z,100277.30
2018-06-10T05:44:27.288Z,100277.30
2018-06-10T05:45:30.709Z,100278.69
2018-06-10T05:46:34.112Z,100284.24
2018-06-10T05:47:37.676Z,100282.85
2018-06-10T05:48:41.075Z,100291.20
2018-06-10T05:49:44.468Z,100288.41
2018-06-10T05:50:47.856Z,100288.41
2018-06-10T05:51:51.254Z,100291.64
2018-06-10T05:52:54.679Z,100285.84
2018-06-10T05:53:58.079Z,100290.02
2018-06-10T05:55:01.483Z,100288.63
2018-06-10T05:56:04.982Z,100283.89
2018-06-10T05:57:08.408Z,100288.63
2018-06-10T05:58:11.821Z,100287.23
2018-06-10T05:59:15.222Z,100295.81
2018-06-10T06:00:18.633Z,100298.59
2018-06-10T06:01:22.025Z,100299.61
2018-06-10T06:02:25.523Z,100306.77
2018-06-10T06:03:28.945Z,100302.98
2018-06-10T06:04:32.371Z,100296.23
2018-06-10T06:05:35.824Z,100303.78
2018-06-10T06:06:39.278Z,100297.63
2018-06-10T06:07:42.650Z,100301.80
2018-06-10T06:08:46.054Z,100300.41
2018-06-10T06:09:49.459Z,100297.41
2018-06-10T06:10:52.872Z,100297.63
2018-06-10T06:11:56.422Z,100301.80
2018-06-10T06:12:59.835Z,100303.19
2018-06-10T06:14:03.255Z,100297.63
2018-06-10T06:15:06.727Z,100299.02
2018-06-10T06:16:10.152Z,100302.39
2018-06-10T06:17:13.612Z,100311.53
2018-06-10T06:18:17.004Z,100310.14
2018-06-10T06:19:20.420Z,100306.77
2018-06-10T06:20:23.851Z,100309.34
2018-06-10T06:21:27.246Z,100309.13
2018-06-10T06:22:30.656Z,100313.51
2018-06-10T06:23:34.068Z,100307.15
2018-06-10T06:24:37.472Z,100308.33
2018-06-10T06:25:40.885Z,100306.94
2018-06-10T06:26:44.300Z,100308.67
2018-06-10T06:27:47.685Z,100313.44
2018-06-10T06:28:51.080Z,100309.48
2018-06-10T06:29:54.495Z,100313.44
2018-06-10T06:30:57.936Z,100319.20
2018-06-10T06:32:01.366Z,100308.67
2018-06-10T06:33:04.783Z,100319.20
2018-06-10T06:34:08.184Z,100321.98
2018-06-10T06:35:11.590Z,100320.39
2018-06-10T06:36:15.006Z,100318.41
2018-06-10T06:37:18.405Z,100317.61
2018-06-10T06:38:21.786Z,100310.86
2018-06-10T06:39:25.279Z,100305.89
2018-06-10T06:40:28.682Z,100308.09
2018-06-10T06:41:32.113Z,100307.87
2018-06-10T06:42:35.521Z,100307.08
2018-06-10T06:43:38.925Z,100308.92
2018-06-10T06:44:42.343Z,100310.31
2018-06-10T06:45:45.775Z,100305.89
2018-06-10T06:46:49.167Z,100318.65
2018-06-10T06:47:52.552Z,100313.89
2018-06-10T06:48:55.940Z,100311.31
2018-06-10T06:49:59.334Z,100304.37
2018-06-10T06:51:02.828Z,100310.14
2018-06-10T06:52:06.498Z,100303.19
2018-06-10T06:53:10.003Z,100309.38
2018-06-10T06:54:13.413Z,100314.94
2018-06-10T06:55:16.808Z,100315.15
2018-06-10T06:56:20.482Z,100314.35
2018-06-10T06:57:23.872Z,100315.15
2018-06-10T06:58:27.292Z,100312.38
2018-06-10T06:59:30.680Z,100310.98
2018-06-10T07:00:34.228Z,100307.98
2018-06-10T07:01:37.641Z,100307.41
2018-06-10T07:02:41.071Z,100307.98
2018-06-10T07:03:44.482Z,100308.20
2018-06-10T07:04:47.853Z,100307.41
2018-06-10T07:05:51.272Z,100306.59
2018-06-10T07:06:54.692Z,100306.01
2018-06-10T07:07:58.113Z,100308.20
2018-06-10T07:09:01.526Z,100301.84
2018-06-10T07:10:04.955Z,100304.23
2018-06-10T07:11:08.380Z,100306.43
2018-06-10T07:12:11.792Z,100300.88
2018-06-10T07:13:15.200Z,100305.84
2018-06-10T07:14:18.596Z,100313.21
2018-06-10T07:15:22.009Z,100308.23
2018-06-10T07:16:25.445Z,100310.81
2018-06-10T07:17:28.843Z,100309.62
2018-06-10T07:18:32.280Z,100306.64
2018-06-10T07:19:35.669Z,100304.45
2018-06-10T07:20:39.095Z,100303.06
2018-06-10T07:21:42.492Z,100307.23
2018-06-10T07:22:45.907Z,100305.84
2018-06-10T07:23:49.270Z,100298.89
2018-06-10T07:24:52.649Z,100297.29
2018-06-10T07:25:56.093Z,100299.48
2018-06-10T07:26:59.517Z,100296.11
2018-06-10T07:28:02.921Z,100300.88
2018-06-10T07:29:06.330Z,100295.52
2018-06-10T07:30:09.738Z,100299.69
2018-06-10T07:31:13.168Z,100306.26
2018-06-10T07:32:16.574Z,100302.47
2018-06-10T07:33:20.007Z,100306.26
2018-06-10T07:34:23.408Z,100307.66
2018-06-10T07:35:26.820Z,100296.11
2018-06-10T07:36:30.256Z,100298.89
2018-06-10T07:37:33.669Z,100305.84
2018-06-10T07:38:37.089Z,100302.84
2018-06-10T07:39:40.482Z,100302.84
2018-06-10T07:40:43.869Z,100302.64
2018-06-10T07:41:47.288Z,100298.84
2018-06-10T07:42:50.715Z,100307.78
2018-06-10T07:43:54.099Z,100302.22
2018-06-10T07:44:57.488Z,100307.78
2018-06-10T07:46:00.926Z,100309.97
2018-06-10T07:47:04.377Z,100307.78
2018-06-10T07:48:07.764Z,100307.57
2018-06-10T07:49:11.215Z,100313.12
2018-06-10T07:50:14.631Z,100307.36
2018-06-10T07:51:18.042Z,100318.27
2018-06-10T07:52:21.451Z,100318.27
2018-06-10T07:53:24.860Z,100321.64
2018-06-10T07:54:28.276Z,100325.01
2018-06-10T07:55:31.743Z,100319.66
2018-06-10T07:56:35.168Z,100320.67
2018-06-10T07:57:38.604Z,100328.42
2018-06-10T07:58:42.004Z,100324.63
2018-06-10T07:59:45.373Z,100328.42
2018-06-10T08:00:48.772Z,100325.43
2018-06-10T08:01:52.176Z,100322.06
2018-06-10T08:02:55.586Z,100322.65
2018-06-10T08:03:59.005Z,100325.22
2018-06-10T08:05:02.414Z,100325.43
2018-06-10T08:06:05.814Z,100325.43
2018-06-10T08:07:09.220Z,100321.05
2018-06-10T08:08:12.614Z,100323.83
2018-06-10T08:09:15.984Z,100326.61
2018-06-10T08:10:19.387Z,100329.39
2018-06-10T08:11:22.799Z,100326.61
2018-06-10T08:12:26.193Z,100327.20
2018-06-10T08:13:29.615Z,100328.59
2018-06-10T08:14:33.009Z,100326.61
2018-06-10T08:15:36.400Z,100327.20
2018-06-10T08:16:39.805Z,100323.03
2018-06-10T08:17:43.202Z,100324.42
2018-06-10T08:18:46.671Z,100325.01
2018-06-10T08:19:50.046Z,100327.41
2018-06-10T08:20:53.452Z,100325.64
2018-06-10T08:21:56.860Z,100327.23
2018-06-10T08:23:00.287Z,100316.13
2018-06-10T08:24:03.731Z,100317.52
2018-06-10T08:25:07.310Z,100314.73
2018-06-10T08:26:10.700Z,100313.93
2018-06-10T08:27:14.109Z,100321.26
2018-06-10T08:28:17.527Z,100314.31
2018-06-10T08:29:20.943Z,100315.32
2018-06-10T08:30:24.332Z,100314.52
2018-06-10T08:31:27.741Z,100309.38
2018-06-10T08:32:31.132Z,100311.95
2018-06-10T08:33:34.532Z,100313.93
2018-06-10T08:34:37.971Z,100315.91
2018-06-10T08:35:41.408Z,100308.16
2018-06-10T08:36:45.027Z,100316.88
2018-06-10T08:37:48.449Z,100313.30
2018-06-10T08:38:51.848Z,100308.33
2018-06-10T08:39:55.248Z,100313.51
2018-06-10T08:40:58.664Z,100309.55
2018-06-10T08:42:02.136Z,100309.55
2018-06-10T08:43:05.543Z,100313.93
2018-06-10T08:44:09.001Z,100316.13
2018-06-10T08:45:12.392Z,100315.32
2018-06-10T08:46:15.796Z,100314.73
2018-06-10T08:47:19.226Z,100311.73
2018-06-10T08:48:22.642Z,100312.54
2018-06-10T08:49:26.087Z,100312.54
2018-06-10T08:50:29.537Z,100313.93
2018-06-10T08:51:32.961Z,100314.35
2018-06-10T08:52:36.386Z,100313.34
2018-06-10T08:53:39.794Z,100311.95
2018-06-10T08:54:43.188Z,100312.75
2018-06-10T08:55:46.628Z,100311.73
2018-06-10T08:56:50.292Z,100315.91
2018-06-10T08:57:53.759Z,100315.53
2018-06-10T08:58:57.158Z,100313.12
2018-06-10T09:00:00.637Z,100315.70
2018-06-10T09:01:04.094Z,100319.88
2018-06-10T09:02:07.514Z,100312.70
2018-06-10T09:03:11.142Z,100323.23
2018-06-10T09:04:15.605Z,100317.89
2018-06-10T09:05:19.164Z,100320.25
2018-06-10T09:06:22.614Z,100319.45
2018-06-10T09:07:26.002Z,100321.19
2018-06-10T09:08:29.426Z,100317.39
2018-06-10T09:09:32.831Z,100323.55
2018-06-10T09:10:36.219Z,100320.34
2018-06-10T09:11:39.663Z,100324.30
2018-06-10T09:12:43.065Z,100323.50
2018-06-10T09:13:46.517Z,100324.89
2018-06-10T09:14:50.020Z,100326.87
2018-06-10T09:15:53.392Z,100331.42
2018-06-10T09:16:56.801Z,100325.27
2018-06-10T09:18:00.186Z,100329.65
2018-06-10T09:19:03.601Z,100329.06
2018-06-10T09:20:07.070Z,100327.45
2018-06-10T09:21:10.491Z,100330.23
2018-06-10T09:22:13.950Z,100324.26
2018-06-10T09:23:17.325Z,100325.27
2018-06-10T09:24:20.728Z,100332.81
2018-06-10T09:25:24.215Z,100327.25
2018-06-10T09:26:27.643Z,100328.64
2018-06-10T09:27:31.083Z,100328.42
2018-06-10T09:28:34.516Z,100332.59
2018-06-10T09:29:37.941Z,100325.44
2018-06-10T09:30:41.360Z,100328.80
2018-06-10T09:31:44.788Z,100325.22
2018-06-10T09:32:48.208Z,100321.05
2018-06-10T09:33:51.605Z,100323.83
2018-06-10T09:34:55.023Z,100326.61
2018-06-10T09:35:58.478Z,100324.42
2018-06-10T09:37:01.926Z,100323.41
2018-06-10T09:38:05.407Z,100325.22
2018-06-10T09:39:09.116Z,100322.82
2018-06-10T09:40:12.506Z,100329.77
2018-06-10T09:41:15.924Z,100325.02
2018-06-10T09:42:19.337Z,100326.41
2018-06-10T09:43:22.770Z,100322.02
2018-06-10T09:44:26.166Z,100322.02
2018-06-10T09:45:29.576Z,100325.39
2018-06-10T09:46:33.011Z,100322.40
2018-06-10T09:47:36.487Z,100320.04
2018-06-10T09:48:39.933Z,100322.82
2018-06-10T09:49:43.348Z,100320.84
2018-06-10T09:50:46.764Z,100318.06
2018-06-10T09:51:50.173Z,100312.88
2018-06-10T09:52:53.604Z,100321.22
2018-06-10T09:53:57.038Z,100323.20
2018-06-10T09:55:00.435Z,100321.36
2018-06-10T09:56:03.884Z,100323.71
2018-06-10T09:57:07.312Z,100323.71
2018-06-10T09:58:10.857Z,100323.50
2018-06-10T09:59:14.584Z,100326.06
2018-06-10T10:00:23.099Z,100327.24
2018-06-10T10:01:26.516Z,100329.44
2018-06-10T10:02:29.927Z,100322.86
2018-06-10T10:03:33.349Z,100327.24
2018-06-10T10:04:36.784Z,100330.41
2018-06-10T10:05:40.196Z,100323.24
2018-06-10T10:06:43.747Z,100326.02
2018-06-10T10:07:47.147Z,100327.20
2018-06-10T10:08:50.626Z,100329.98
2018-06-10T10:09:54.055Z,100327.78
2018-06-10T10:10:57.466Z,100328.37
2018-06-10T10:12:00.888Z,100326.19
2018-06-10T10:13:04.301Z,100320.62
2018-06-10T10:14:08.785Z,100321.80
2018-06-10T10:15:12.240Z,100325.01
2018-06-10T10:16:15.644Z,100327.58
2018-06-10T10:17:19.051Z,100323.41
2018-06-10T10:18:22.444Z,100324.80
2018-06-10T10:19:25.906Z,100317.64
2018-06-10T10:20:29.619Z,100322.39
2018-06-10T10:21:33.041Z,100320.41
2018-06-10T10:22:36.476Z,100324.38
2018-06-10T10:23:39.894Z,100321.38
2018-06-10T10:24:43.311Z,100317.77
2018-06-10T10:25:46.753Z,100316.97
2018-06-10T10:26:50.175Z,100320.55
2018-06-10T10:27:53.599Z,100322.53
2018-06-10T10:28:56.986Z,100318.95
2018-06-10T10:30:00.387Z,100322.31
2018-06-10T10:31:03.829Z,100312.59
2018-06-10T10:32:07.226Z,100318.52
2018-06-10T10:33:10.637Z,100320.50
2018-06-10T10:34:14.018Z,100318.90
2018-06-10T10:35:17.402Z,100317.51
2018-06-10T10:36:20.821Z,100317.51
2018-06-10T10:37:24.226Z,100317.51
2018-06-10T10:38:27.637Z,100316.13
2018-06-10T10:39:31.045Z,100318.69
2018-06-10T10:40:34.476Z,100316.71
2018-06-10T10:41:37.925Z,100317.89
2018-06-10T10:42:41.332Z,100319.86
2018-06-10T10:43:44.752Z,100315.70
2018-06-10T10:44:48.175Z,100319.27
2018-06-10T10:45:51.569Z,100315.91
2018-06-10T10:46:54.988Z,100316.28
2018-06-10T10:47:58.380Z,100316.50
2018-06-10T10:49:01.816Z,100316.71
2018-06-10T10:50:05.265Z,100319.86
2018-06-10T10:51:08.699Z,100317.89
2018-06-10T10:52:12.116Z,100321.25
2018-06-10T10:53:15.548Z,100321.25
2018-06-10T10:54:18.953Z,100324.03
2018-06-10T10:55:22.371Z,100322.64
2018-06-10T10:56:25.818Z,100321.25
2018-06-10T10:57:29.249Z,100317.09
2018-06-10T10:58:32.657Z,100325.05
2018-06-10T10:59:36.042Z,100321.47
2018-06-10T11:00:39.440Z,100318.09
2018-06-10T11:01:42.846Z,100315.32
2018-06-10T11:02:46.277Z,100311.95
2018-06-10T11:03:49.658Z,100309.17
2018-06-10T11:04:53.105Z,100317.51
2018-06-10T11:05:56.497Z,100306.39
2018-06-10T11:06:59.880Z,100311.95
2018-06-10T11:08:03.305Z,100313.34
2018-06-10T11:09:08.211Z,100311.73
2018-06-10T11:10:11.618Z,100306.19
2018-06-10T11:11:15.008Z,100312.54
2018-06-10T11:12:18.826Z,100313.12
2018-06-10T11:13:22.383Z,100312.54
2018-06-10T11:14:25.784Z,100315.11
2018-06-10T11:15:29.197Z,100311.53
2018-06-10T11:16:32.598Z,100319.86
2018-06-10T11:17:36.056Z,100317.89
2018-06-10T11:18:39.459Z,100318.48
2018-06-10T11:19:42.937Z,100316.88
2018-06-10T11:20:46.410Z,100321.04
2018-06-10T11:21:49.829Z,100315.48
2018-06-10T11:22:53.243Z,100318.27
2018-06-10T11:23:56.787Z,100316.28
2018-06-10T11:25:00.249Z,100315.48
2018-06-10T11:26:03.644Z,100319.66
2018-06-10T11:27:07.136Z,100318.85
2018-06-10T11:28:10.505Z,100322.22
2018-06-10T11:29:14.046Z,100320.83
2018-06-10T11:30:17.492Z,100313.08
2018-06-10T11:31:20.914Z,100309.50
2018-06-10T11:32:24.345Z,100308.11
2018-06-10T11:33:27.769Z,100315.06
2018-06-10T11:34:31.269Z,100309.50
2018-06-10T11:35:34.618Z,100312.49
2018-06-10T11:36:38.183Z,100312.28
2018-06-10T11:37:41.676Z,100309.72
2018-06-10T11:38:46.202Z,100310.52
2018-06-10T11:39:53.365Z,100310.73
2018-06-10T11:40:57.660Z,100318.48
2018-06-10T11:42:01.795Z,100316.88
2018-06-10T11:43:06.052Z,100320.45
2018-06-10T11:44:09.485Z,100308.54
2018-06-10T11:45:13.207Z,100314.68
2018-06-10T11:46:16.617Z,100316.88
2018-06-10T11:47:20.909Z,100310.14
2018-06-10T11:48:24.335Z,100314.09
2018-06-10T11:49:28.645Z,100311.15
2018-06-10T11:50:32.082Z,100314.52
2018-06-10T11:51:35.466Z,100311.73
2018-06-10T11:52:38.944Z,100313.34
2018-06-10T11:53:42.826Z,100306.77
2018-06-10T11:54:46.236Z,100303.41
2018-06-10T11:55:49.776Z,100309.77
2018-06-10T11:56:53.189Z,100309.97
2018-06-10T11:57:56.661Z,100306.98
2018-06-10T11:59:01.299Z,100309.38
2018-06-10T12:00:06.299Z,100310.77
2018-06-10T12:01:10.792Z,100305.81
2018-06-10T12:02:14.189Z,100309.38
2018-06-10T12:03:17.569Z,100305.81
2018-06-10T12:04:21.051Z,100309.97